sensor_id;sensor_type;location;lat;lon;timestamp;P1;durP1;ratioP1;P2;durP2;ratioP2
3245;SDS011;1635;48.000;10.582;2022-09-09T00:01:52;0.50;;;0.50;;
3245;SDS011;1635;48.000;10.582;2022-09-09T00:04:37;0.40;;;0.40;;
3245;SDS011;1635;48.000;10.582;2022-09-09T00:15:28;0.50;;;0.50;;
3245;SDS011;1635;48.000;10.582;2022-09-09T00:20:56;0.50;;;0.50;;
3245;SDS011;1635;48.000;10.582;2022-09-09T00:23:39;0.50;;;0.50;;
3245;SDS011;1635;48.000;10.582;2022-09-09T00:29:28;0.67;;;0.67;;
3245;SDS011;1635;48.000;10.582;2022-09-09T00:32:15;0.50;;;0.50;;
3245;SDS011;1635;48.000;10.582;2022-09-09T00:34:55;0.47;;;0.47;;
3245;SDS011;1635;48.000;10.582;2022-09-09T00:37:29;0.40;;;0.40;;
3245;SDS011;1635;48.000;10.582;2022-09-09T00:40:00;1.53;;;1.33;;
3245;SDS011;1635;48.000;10.582;2022-09-09T00:48:26;0.50;;;0.50;;
3245;SDS011;1635;48.000;10.582;2022-09-09T00:51:23;0.50;;;0.50;;
3245;SDS011;1635;48.000;10.582;2022-09-09T00:54:44;0.50;;;0.50;;
3245;SDS011;1635;48.000;10.582;2022-09-09T00:56:49;0.50;;;0.50;;
3245;SDS011;1635;48.000;10.582;2022-09-09T00:59:50;0.50;;;0.50;;
3245;SDS011;1635;48.000;10.582;2022-09-09T01:02:29;1.27;;;1.20;;
3245;SDS011;1635;48.000;10.582;2022-09-09T01:05:04;0.70;;;0.70;;
3245;SDS011;1635;48.000;10.582;2022-09-09T01:07:40;0.40;;;0.40;;
3245;SDS011;1635;48.000;10.582;2022-09-09T01:10:17;0.40;;;0.40;;
3245;SDS011;1635;48.000;10.582;2022-09-09T01:12:58;0.50;;;0.50;;
3245;SDS011;1635;48.000;10.582;2022-09-09T01:15:31;0.50;;;0.50;;
3245;SDS011;1635;48.000;10.582;2022-09-09T01:18:05;0.50;;;0.50;;
3245;SDS011;1635;48.000;10.582;2022-09-09T01:20:51;0.50;;;0.50;;
3245;SDS011;1635;48.000;10.582;2022-09-09T01:27:02;0.50;;;0.50;;
3245;SDS011;1635;48.000;10.582;2022-09-09T01:29:33;0.50;;;0.50;;
3245;SDS011;1635;48.000;10.582;2022-09-09T01:35:07;0.50;;;0.50;;
3245;SDS011;1635;48.000;10.582;2022-09-09T01:38:02;0.50;;;0.50;;
3245;SDS011;1635;48.000;10.582;2022-09-09T01:40:30;0.50;;;0.50;;
3245;SDS011;1635;48.000;10.582;2022-09-09T01:42:59;0.50;;;0.50;;
3245;SDS011;1635;48.000;10.582;2022-09-09T01:45:29;0.50;;;0.50;;
3245;SDS011;1635;48.000;10.582;2022-09-09T01:47:57;0.50;;;0.50;;
3245;SDS011;1635;48.000;10.582;2022-09-09T01:50:43;0.40;;;0.40;;
3245;SDS011;1635;48.000;10.582;2022-09-09T01:53:11;0.50;;;0.50;;
3245;SDS011;1635;48.000;10.582;2022-09-09T01:55:41;0.50;;;0.50;;
3245;SDS011;1635;48.000;10.582;2022-09-09T01:58:21;0.50;;;0.50;;
3245;SDS011;1635;48.000;10.582;2022-09-09T02:01:06;0.50;;;0.50;;
3245;SDS011;1635;48.000;10.582;2022-09-09T02:04:09;0.50;;;0.50;;
3245;SDS011;1635;48.000;10.582;2022-09-09T02:06:52;0.50;;;0.50;;
3245;SDS011;1635;48.000;10.582;2022-09-09T02:09:26;0.60;;;0.60;;
3245;SDS011;1635;48.000;10.582;2022-09-09T02:12:08;1.10;;;1.03;;
3245;SDS011;1635;48.000;10.582;2022-09-09T02:14:50;0.50;;;0.50;;
3245;SDS011;1635;48.000;10.582;2022-09-09T02:17:33;0.50;;;0.50;;
3245;SDS011;1635;48.000;10.582;2022-09-09T02:20:10;0.70;;;0.70;;
3245;SDS011;1635;48.000;10.582;2022-09-09T02:22:48;0.50;;;0.50;;
3245;SDS011;1635;48.000;10.582;2022-09-09T02:25:20;0.50;;;0.50;;
3245;SDS011;1635;48.000;10.582;2022-09-09T02:27:53;0.50;;;0.50;;
3245;SDS011;1635;48.000;10.582;2022-09-09T02:30:21;0.50;;;0.50;;
3245;SDS011;1635;48.000;10.582;2022-09-09T02:32:56;0.50;;;0.50;;
3245;SDS011;1635;48.000;10.582;2022-09-09T02:35:44;0.40;;;0.40;;
3245;SDS011;1635;48.000;10.582;2022-09-09T02:38:18;2.40;;;1.13;;
3245;SDS011;1635;48.000;10.582;2022-09-09T02:40:58;0.50;;;0.50;;
3245;SDS011;1635;48.000;10.582;2022-09-09T02:43:30;0.40;;;0.40;;
3245;SDS011;1635;48.000;10.582;2022-09-09T02:46:03;0.40;;;0.40;;
3245;SDS011;1635;48.000;10.582;2022-09-09T02:48:48;0.40;;;0.40;;
3245;SDS011;1635;48.000;10.582;2022-09-09T02:51:38;0.50;;;0.50;;
3245;SDS011;1635;48.000;10.582;2022-09-09T02:59:46;0.50;;;0.50;;
3245;SDS011;1635;48.000;10.582;2022-09-09T03:02:14;0.50;;;0.50;;
3245;SDS011;1635;48.000;10.582;2022-09-09T03:04:46;0.57;;;0.57;;
3245;SDS011;1635;48.000;10.582;2022-09-09T03:07:21;0.50;;;0.50;;
3245;SDS011;1635;48.000;10.582;2022-09-09T03:09:51;0.50;;;0.50;;
3245;SDS011;1635;48.000;10.582;2022-09-09T03:12:24;0.73;;;0.73;;
3245;SDS011;1635;48.000;10.582;2022-09-09T03:14:51;0.50;;;0.50;;
3245;SDS011;1635;48.000;10.582;2022-09-09T03:17:20;0.50;;;0.50;;
3245;SDS011;1635;48.000;10.582;2022-09-09T03:19:52;0.40;;;0.40;;
3245;SDS011;1635;48.000;10.582;2022-09-09T03:22:22;0.50;;;0.50;;
3245;SDS011;1635;48.000;10.582;2022-09-09T03:24:50;1.03;;;1.03;;
3245;SDS011;1635;48.000;10.582;2022-09-09T03:27:19;0.50;;;0.50;;
3245;SDS011;1635;48.000;10.582;2022-09-09T03:29:47;0.60;;;0.60;;
3245;SDS011;1635;48.000;10.582;2022-09-09T03:32:21;0.40;;;0.40;;
3245;SDS011;1635;48.000;10.582;2022-09-09T03:34:49;3.07;;;1.63;;
3245;SDS011;1635;48.000;10.582;2022-09-09T03:37:18;0.50;;;0.50;;
3245;SDS011;1635;48.000;10.582;2022-09-09T03:39:48;0.50;;;0.50;;
3245;SDS011;1635;48.000;10.582;2022-09-09T03:42:18;0.50;;;0.50;;
3245;SDS011;1635;48.000;10.582;2022-09-09T03:44:49;0.50;;;0.50;;
3245;SDS011;1635;48.000;10.582;2022-09-09T03:47:20;0.60;;;0.60;;
3245;SDS011;1635;48.000;10.582;2022-09-09T03:49:51;0.50;;;0.50;;
3245;SDS011;1635;48.000;10.582;2022-09-09T03:52:19;0.57;;;0.57;;
3245;SDS011;1635;48.000;10.582;2022-09-09T03:54:51;0.60;;;0.60;;
3245;SDS011;1635;48.000;10.582;2022-09-09T03:57:20;0.50;;;0.50;;
3245;SDS011;1635;48.000;10.582;2022-09-09T03:59:49;0.60;;;0.60;;
3245;SDS011;1635;48.000;10.582;2022-09-09T04:02:16;0.50;;;0.50;;
3245;SDS011;1635;48.000;10.582;2022-09-09T04:04:44;0.50;;;0.50;;
3245;SDS011;1635;48.000;10.582;2022-09-09T04:07:12;0.50;;;0.50;;
3245;SDS011;1635;48.000;10.582;2022-09-09T04:09:41;0.50;;;0.50;;
3245;SDS011;1635;48.000;10.582;2022-09-09T04:12:08;0.50;;;0.50;;
3245;SDS011;1635;48.000;10.582;2022-09-09T04:14:38;0.60;;;0.60;;
3245;SDS011;1635;48.000;10.582;2022-09-09T04:17:06;1.27;;;1.27;;
3245;SDS011;1635;48.000;10.582;2022-09-09T04:19:34;0.50;;;0.50;;
3245;SDS011;1635;48.000;10.582;2022-09-09T04:22:02;0.50;;;0.50;;
3245;SDS011;1635;48.000;10.582;2022-09-09T04:24:30;0.50;;;0.50;;
3245;SDS011;1635;48.000;10.582;2022-09-09T04:26:59;0.50;;;0.50;;
3245;SDS011;1635;48.000;10.582;2022-09-09T04:29:27;0.50;;;0.50;;
3245;SDS011;1635;48.000;10.582;2022-09-09T04:31:55;0.60;;;0.60;;
3245;SDS011;1635;48.000;10.582;2022-09-09T04:34:23;0.60;;;0.60;;
3245;SDS011;1635;48.000;10.582;2022-09-09T04:36:53;0.50;;;0.50;;
3245;SDS011;1635;48.000;10.582;2022-09-09T04:39:22;0.50;;;0.50;;
3245;SDS011;1635;48.000;10.582;2022-09-09T04:41:50;0.50;;;0.50;;
3245;SDS011;1635;48.000;10.582;2022-09-09T04:44:18;0.50;;;0.50;;
3245;SDS011;1635;48.000;10.582;2022-09-09T04:46:47;0.50;;;0.50;;
3245;SDS011;1635;48.000;10.582;2022-09-09T04:49:15;0.70;;;0.70;;
3245;SDS011;1635;48.000;10.582;2022-09-09T04:51:43;0.50;;;0.50;;
3245;SDS011;1635;48.000;10.582;2022-09-09T04:54:12;0.50;;;0.50;;
3245;SDS011;1635;48.000;10.582;2022-09-09T04:56:42;0.60;;;0.60;;
3245;SDS011;1635;48.000;10.582;2022-09-09T04:59:10;0.50;;;0.50;;
3245;SDS011;1635;48.000;10.582;2022-09-09T05:01:44;0.50;;;0.50;;
3245;SDS011;1635;48.000;10.582;2022-09-09T05:04:12;0.50;;;0.50;;
3245;SDS011;1635;48.000;10.582;2022-09-09T05:06:41;0.50;;;0.50;;
3245;SDS011;1635;48.000;10.582;2022-09-09T05:09:12;0.60;;;0.60;;
3245;SDS011;1635;48.000;10.582;2022-09-09T05:11:40;0.50;;;0.50;;
3245;SDS011;1635;48.000;10.582;2022-09-09T05:14:15;1.33;;;1.23;;
3245;SDS011;1635;48.000;10.582;2022-09-09T05:16:46;1.00;;;1.00;;
3245;SDS011;1635;48.000;10.582;2022-09-09T05:19:14;0.60;;;0.60;;
3245;SDS011;1635;48.000;10.582;2022-09-09T05:21:45;0.83;;;0.70;;
3245;SDS011;1635;48.000;10.582;2022-09-09T05:24:15;0.70;;;0.70;;
3245;SDS011;1635;48.000;10.582;2022-09-09T05:26:46;1.43;;;1.33;;
3245;SDS011;1635;48.000;10.582;2022-09-09T05:29:14;0.70;;;0.70;;
3245;SDS011;1635;48.000;10.582;2022-09-09T05:31:42;0.83;;;0.83;;
3245;SDS011;1635;48.000;10.582;2022-09-09T05:34:14;0.90;;;0.90;;
3245;SDS011;1635;48.000;10.582;2022-09-09T05:36:42;1.10;;;1.10;;
3245;SDS011;1635;48.000;10.582;2022-09-09T05:39:11;1.10;;;1.10;;
3245;SDS011;1635;48.000;10.582;2022-09-09T05:41:38;1.10;;;1.10;;
3245;SDS011;1635;48.000;10.582;2022-09-09T05:44:06;1.20;;;1.20;;
3245;SDS011;1635;48.000;10.582;2022-09-09T05:46:37;1.07;;;1.07;;
3245;SDS011;1635;48.000;10.582;2022-09-09T05:49:05;1.67;;;1.60;;
3245;SDS011;1635;48.000;10.582;2022-09-09T05:51:34;1.10;;;1.10;;
3245;SDS011;1635;48.000;10.582;2022-09-09T05:54:07;1.30;;;1.30;;
3245;SDS011;1635;48.000;10.582;2022-09-09T05:56:40;1.30;;;1.30;;
3245;SDS011;1635;48.000;10.582;2022-09-09T05:59:08;2.03;;;1.93;;
3245;SDS011;1635;48.000;10.582;2022-09-09T06:01:38;4.90;;;1.43;;
3245;SDS011;1635;48.000;10.582;2022-09-09T06:04:09;1.20;;;1.20;;
3245;SDS011;1635;48.000;10.582;2022-09-09T06:06:39;3.90;;;1.30;;
3245;SDS011;1635;48.000;10.582;2022-09-09T06:09:12;1.67;;;1.57;;
3245;SDS011;1635;48.000;10.582;2022-09-09T06:11:42;1.30;;;1.30;;
3245;SDS011;1635;48.000;10.582;2022-09-09T06:14:11;1.20;;;1.20;;
3245;SDS011;1635;48.000;10.582;2022-09-09T06:16:40;1.50;;;1.40;;
3245;SDS011;1635;48.000;10.582;2022-09-09T06:19:18;1.43;;;1.37;;
3245;SDS011;1635;48.000;10.582;2022-09-09T06:21:48;3.40;;;2.57;;
3245;SDS011;1635;48.000;10.582;2022-09-09T06:24:18;1.20;;;1.20;;
3245;SDS011;1635;48.000;10.582;2022-09-09T06:26:47;1.13;;;1.13;;
3245;SDS011;1635;48.000;10.582;2022-09-09T06:29:20;1.30;;;1.30;;
3245;SDS011;1635;48.000;10.582;2022-09-09T06:31:49;1.20;;;1.20;;
3245;SDS011;1635;48.000;10.582;2022-09-09T06:34:20;4.83;;;1.50;;
3245;SDS011;1635;48.000;10.582;2022-09-09T06:36:52;1.20;;;1.20;;
3245;SDS011;1635;48.000;10.582;2022-09-09T06:39:21;2.10;;;1.90;;
3245;SDS011;1635;48.000;10.582;2022-09-09T06:41:49;1.07;;;1.07;;
3245;SDS011;1635;48.000;10.582;2022-09-09T06:44:38;2.90;;;2.80;;
3245;SDS011;1635;48.000;10.582;2022-09-09T06:47:14;1.10;;;1.10;;
3245;SDS011;1635;48.000;10.582;2022-09-09T06:49:43;1.83;;;1.73;;
3245;SDS011;1635;48.000;10.582;2022-09-09T06:52:14;1.10;;;1.10;;
3245;SDS011;1635;48.000;10.582;2022-09-09T06:54:42;5.43;;;1.57;;
3245;SDS011;1635;48.000;10.582;2022-09-09T06:57:09;1.30;;;1.30;;
3245;SDS011;1635;48.000;10.582;2022-09-09T06:59:57;1.73;;;1.63;;
3245;SDS011;1635;48.000;10.582;2022-09-09T07:02:25;1.60;;;1.50;;
3245;SDS011;1635;48.000;10.582;2022-09-09T07:04:53;1.20;;;1.20;;
3245;SDS011;1635;48.000;10.582;2022-09-09T07:07:21;1.20;;;1.20;;
3245;SDS011;1635;48.000;10.582;2022-09-09T07:09:50;1.00;;;1.00;;
3245;SDS011;1635;48.000;10.582;2022-09-09T07:12:18;1.40;;;1.40;;
3245;SDS011;1635;48.000;10.582;2022-09-09T07:14:54;1.13;;;1.13;;
3245;SDS011;1635;48.000;10.582;2022-09-09T07:17:25;1.23;;;1.20;;
3245;SDS011;1635;48.000;10.582;2022-09-09T07:19:59;1.40;;;1.40;;
3245;SDS011;1635;48.000;10.582;2022-09-09T07:22:28;1.27;;;1.27;;
3245;SDS011;1635;48.000;10.582;2022-09-09T07:24:57;1.20;;;1.20;;
3245;SDS011;1635;48.000;10.582;2022-09-09T07:27:25;1.20;;;1.20;;
3245;SDS011;1635;48.000;10.582;2022-09-09T07:29:54;1.10;;;1.10;;
3245;SDS011;1635;48.000;10.582;2022-09-09T07:32:23;1.23;;;1.23;;
3245;SDS011;1635;48.000;10.582;2022-09-09T07:34:52;1.10;;;1.10;;
3245;SDS011;1635;48.000;10.582;2022-09-09T07:37:21;1.47;;;1.47;;
3245;SDS011;1635;48.000;10.582;2022-09-09T07:39:49;1.33;;;1.33;;
3245;SDS011;1635;48.000;10.582;2022-09-09T07:42:18;1.40;;;1.40;;
3245;SDS011;1635;48.000;10.582;2022-09-09T07:44:46;1.20;;;1.20;;
3245;SDS011;1635;48.000;10.582;2022-09-09T07:47:17;1.30;;;1.30;;
3245;SDS011;1635;48.000;10.582;2022-09-09T07:49:47;1.20;;;1.20;;
3245;SDS011;1635;48.000;10.582;2022-09-09T07:52:21;1.20;;;1.20;;
3245;SDS011;1635;48.000;10.582;2022-09-09T07:54:53;1.40;;;1.40;;
3245;SDS011;1635;48.000;10.582;2022-09-09T07:57:21;1.70;;;1.60;;
3245;SDS011;1635;48.000;10.582;2022-09-09T07:59:51;2.40;;;2.20;;
3245;SDS011;1635;48.000;10.582;2022-09-09T08:02:20;1.40;;;1.40;;
3245;SDS011;1635;48.000;10.582;2022-09-09T08:04:47;1.40;;;1.40;;
3245;SDS011;1635;48.000;10.582;2022-09-09T08:07:18;1.47;;;1.47;;
3245;SDS011;1635;48.000;10.582;2022-09-09T08:09:52;1.40;;;1.40;;
3245;SDS011;1635;48.000;10.582;2022-09-09T08:12:25;1.50;;;1.50;;
3245;SDS011;1635;48.000;10.582;2022-09-09T08:14:54;1.37;;;1.37;;
3245;SDS011;1635;48.000;10.582;2022-09-09T08:17:24;1.80;;;1.70;;
3245;SDS011;1635;48.000;10.582;2022-09-09T08:19:52;1.30;;;1.30;;
3245;SDS011;1635;48.000;10.582;2022-09-09T08:22:24;1.70;;;1.60;;
3245;SDS011;1635;48.000;10.582;2022-09-09T08:24:54;1.70;;;1.70;;
3245;SDS011;1635;48.000;10.582;2022-09-09T08:27:23;1.33;;;1.33;;
3245;SDS011;1635;48.000;10.582;2022-09-09T08:29:53;1.30;;;1.30;;
3245;SDS011;1635;48.000;10.582;2022-09-09T08:32:23;1.30;;;1.30;;
3245;SDS011;1635;48.000;10.582;2022-09-09T08:34:51;1.60;;;1.60;;
3245;SDS011;1635;48.000;10.582;2022-09-09T08:37:22;1.50;;;1.50;;
3245;SDS011;1635;48.000;10.582;2022-09-09T08:39:49;1.77;;;1.70;;
3245;SDS011;1635;48.000;10.582;2022-09-09T08:51:22;1.80;;;1.70;;
3245;SDS011;1635;48.000;10.582;2022-09-09T08:53:57;1.93;;;1.83;;
3245;SDS011;1635;48.000;10.582;2022-09-09T08:56:28;1.70;;;1.70;;
3245;SDS011;1635;48.000;10.582;2022-09-09T08:59:00;1.53;;;1.47;;
3245;SDS011;1635;48.000;10.582;2022-09-09T09:01:41;1.70;;;1.60;;
3245;SDS011;1635;48.000;10.582;2022-09-09T09:07:40;14.03;;;3.00;;
3245;SDS011;1635;48.000;10.582;2022-09-09T09:13:23;1.40;;;1.40;;
3245;SDS011;1635;48.000;10.582;2022-09-09T09:16:31;1.40;;;1.40;;
3245;SDS011;1635;48.000;10.582;2022-09-09T09:19:04;1.93;;;1.60;;
3245;SDS011;1635;48.000;10.582;2022-09-09T09:21:47;1.20;;;1.20;;
3245;SDS011;1635;48.000;10.582;2022-09-09T09:24:22;1.23;;;1.23;;
3245;SDS011;1635;48.000;10.582;2022-09-09T09:26:59;1.40;;;1.30;;
3245;SDS011;1635;48.000;10.582;2022-09-09T09:29:35;1.40;;;1.40;;
3245;SDS011;1635;48.000;10.582;2022-09-09T09:32:24;1.40;;;1.40;;
3245;SDS011;1635;48.000;10.582;2022-09-09T09:34:54;1.60;;;1.60;;
3245;SDS011;1635;48.000;10.582;2022-09-09T09:37:28;1.60;;;1.60;;
3245;SDS011;1635;48.000;10.582;2022-09-09T09:40:13;1.60;;;1.60;;
3245;SDS011;1635;48.000;10.582;2022-09-09T09:42:56;1.40;;;1.40;;
3245;SDS011;1635;48.000;10.582;2022-09-09T09:45:34;1.50;;;1.50;;
3245;SDS011;1635;48.000;10.582;2022-09-09T09:48:22;1.90;;;1.80;;
3245;SDS011;1635;48.000;10.582;2022-09-09T09:53:36;1.40;;;1.40;;
3245;SDS011;1635;48.000;10.582;2022-09-09T09:56:11;1.83;;;1.80;;
3245;SDS011;1635;48.000;10.582;2022-09-09T09:58:49;3.10;;;3.00;;
3245;SDS011;1635;48.000;10.582;2022-09-09T10:01:23;3.83;;;3.73;;
3245;SDS011;1635;48.000;10.582;2022-09-09T10:04:13;3.57;;;3.47;;
3245;SDS011;1635;48.000;10.582;2022-09-09T10:06:47;3.87;;;3.77;;
3245;SDS011;1635;48.000;10.582;2022-09-09T10:09:31;5.17;;;5.00;;
3245;SDS011;1635;48.000;10.582;2022-09-09T10:15:09;3.40;;;3.30;;
3245;SDS011;1635;48.000;10.582;2022-09-09T10:18:06;5.50;;;3.30;;
3245;SDS011;1635;48.000;10.582;2022-09-09T10:21:01;2.27;;;2.17;;
3245;SDS011;1635;48.000;10.582;2022-09-09T10:32:53;2.03;;;2.00;;
3245;SDS011;1635;48.000;10.582;2022-09-09T10:38:10;2.50;;;2.20;;
3245;SDS011;1635;48.000;10.582;2022-09-09T10:55:02;3.60;;;3.50;;
3245;SDS011;1635;48.000;10.582;2022-09-09T11:03:09;2.67;;;2.57;;
3245;SDS011;1635;48.000;10.582;2022-09-09T11:05:49;3.00;;;2.90;;
3245;SDS011;1635;48.000;10.582;2022-09-09T11:08:32;2.80;;;2.70;;
3245;SDS011;1635;48.000;10.582;2022-09-09T11:14:05;2.60;;;2.50;;
3245;SDS011;1635;48.000;10.582;2022-09-09T11:16:46;2.50;;;2.40;;
3245;SDS011;1635;48.000;10.582;2022-09-09T11:19:26;2.53;;;2.43;;
3245;SDS011;1635;48.000;10.582;2022-09-09T11:22:06;2.70;;;2.60;;
3245;SDS011;1635;48.000;10.582;2022-09-09T11:24:46;2.87;;;2.77;;
3245;SDS011;1635;48.000;10.582;2022-09-09T11:27:29;3.00;;;2.90;;
3245;SDS011;1635;48.000;10.582;2022-09-09T11:42:16;2.83;;;2.40;;
3245;SDS011;1635;48.000;10.582;2022-09-09T11:44:46;2.30;;;2.20;;
3245;SDS011;1635;48.000;10.582;2022-09-09T11:47:29;2.37;;;2.27;;
3245;SDS011;1635;48.000;10.582;2022-09-09T11:50:09;2.10;;;2.00;;
3245;SDS011;1635;48.000;10.582;2022-09-09T11:53:05;2.07;;;1.97;;
3245;SDS011;1635;48.000;10.582;2022-09-09T11:55:39;2.00;;;1.90;;
3245;SDS011;1635;48.000;10.582;2022-09-09T12:00:40;2.27;;;2.17;;
3245;SDS011;1635;48.000;10.582;2022-09-09T12:06:08;2.10;;;2.00;;
3245;SDS011;1635;48.000;10.582;2022-09-09T12:08:41;2.40;;;2.30;;
3245;SDS011;1635;48.000;10.582;2022-09-09T12:11:12;1.97;;;1.87;;
3245;SDS011;1635;48.000;10.582;2022-09-09T12:13:53;1.73;;;1.67;;
3245;SDS011;1635;48.000;10.582;2022-09-09T12:19:22;1.90;;;1.80;;
3245;SDS011;1635;48.000;10.582;2022-09-09T12:25:09;1.70;;;1.70;;
3245;SDS011;1635;48.000;10.582;2022-09-09T12:28:18;2.20;;;2.10;;
3245;SDS011;1635;48.000;10.582;2022-09-09T12:33:38;2.60;;;2.50;;
3245;SDS011;1635;48.000;10.582;2022-09-09T12:36:12;1.90;;;1.80;;
3245;SDS011;1635;48.000;10.582;2022-09-09T12:39:09;2.43;;;2.33;;
3245;SDS011;1635;48.000;10.582;2022-09-09T12:41:50;4.73;;;3.03;;
3245;SDS011;1635;48.000;10.582;2022-09-09T12:44:26;5.03;;;2.33;;
3245;SDS011;1635;48.000;10.582;2022-09-09T12:46:58;2.07;;;1.97;;
3245;SDS011;1635;48.000;10.582;2022-09-09T12:49:34;1.83;;;1.73;;
3245;SDS011;1635;48.000;10.582;2022-09-09T12:52:19;2.10;;;2.00;;
3245;SDS011;1635;48.000;10.582;2022-09-09T12:54:54;2.10;;;2.00;;
3245;SDS011;1635;48.000;10.582;2022-09-09T12:57:24;2.27;;;2.17;;
3245;SDS011;1635;48.000;10.582;2022-09-09T13:00:04;2.73;;;2.63;;
3245;SDS011;1635;48.000;10.582;2022-09-09T13:02:32;2.40;;;2.20;;
3245;SDS011;1635;48.000;10.582;2022-09-09T13:05:14;2.30;;;2.20;;
3245;SDS011;1635;48.000;10.582;2022-09-09T13:07:45;2.20;;;2.10;;
3245;SDS011;1635;48.000;10.582;2022-09-09T13:10:14;2.40;;;2.30;;
3245;SDS011;1635;48.000;10.582;2022-09-09T13:13:04;2.27;;;2.17;;
3245;SDS011;1635;48.000;10.582;2022-09-09T13:15:39;1.90;;;1.80;;
3245;SDS011;1635;48.000;10.582;2022-09-09T13:18:16;2.20;;;2.10;;
3245;SDS011;1635;48.000;10.582;2022-09-09T13:20:46;2.30;;;2.20;;
3245;SDS011;1635;48.000;10.582;2022-09-09T13:23:16;2.10;;;2.00;;
3245;SDS011;1635;48.000;10.582;2022-09-09T13:25:56;1.80;;;1.70;;
3245;SDS011;1635;48.000;10.582;2022-09-09T13:28:44;1.50;;;1.50;;
3245;SDS011;1635;48.000;10.582;2022-09-09T13:31:24;2.00;;;1.90;;
3245;SDS011;1635;48.000;10.582;2022-09-09T13:33:56;1.50;;;1.50;;
3245;SDS011;1635;48.000;10.582;2022-09-09T13:36:28;2.03;;;1.93;;
3245;SDS011;1635;48.000;10.582;2022-09-09T13:38:58;1.60;;;1.60;;
3245;SDS011;1635;48.000;10.582;2022-09-09T13:41:34;1.63;;;1.60;;
3245;SDS011;1635;48.000;10.582;2022-09-09T13:44:04;1.80;;;1.70;;
3245;SDS011;1635;48.000;10.582;2022-09-09T13:46:37;1.77;;;1.73;;
3245;SDS011;1635;48.000;10.582;2022-09-09T13:51:37;1.83;;;1.73;;
3245;SDS011;1635;48.000;10.582;2022-09-09T13:54:10;5.37;;;2.30;;
3245;SDS011;1635;48.000;10.582;2022-09-09T13:56:39;1.77;;;1.70;;
3245;SDS011;1635;48.000;10.582;2022-09-09T13:59:11;2.00;;;1.90;;
3245;SDS011;1635;48.000;10.582;2022-09-09T14:01:40;2.10;;;2.00;;
3245;SDS011;1635;48.000;10.582;2022-09-09T14:04:09;2.20;;;2.10;;
3245;SDS011;1635;48.000;10.582;2022-09-09T14:06:37;2.10;;;2.00;;
3245;SDS011;1635;48.000;10.582;2022-09-09T14:09:07;2.10;;;2.00;;
3245;SDS011;1635;48.000;10.582;2022-09-09T14:11:37;2.03;;;1.93;;
3245;SDS011;1635;48.000;10.582;2022-09-09T14:14:06;2.00;;;1.90;;
3245;SDS011;1635;48.000;10.582;2022-09-09T14:16:33;2.33;;;2.23;;
3245;SDS011;1635;48.000;10.582;2022-09-09T14:19:01;2.00;;;1.90;;
3245;SDS011;1635;48.000;10.582;2022-09-09T14:21:29;1.70;;;1.70;;
3245;SDS011;1635;48.000;10.582;2022-09-09T14:23:57;1.80;;;1.70;;
3245;SDS011;1635;48.000;10.582;2022-09-09T14:26:24;1.60;;;1.60;;
3245;SDS011;1635;48.000;10.582;2022-09-09T14:28:53;1.73;;;1.63;;
3245;SDS011;1635;48.000;10.582;2022-09-09T14:31:22;2.00;;;1.90;;
3245;SDS011;1635;48.000;10.582;2022-09-09T14:33:51;1.70;;;1.70;;
3245;SDS011;1635;48.000;10.582;2022-09-09T14:36:19;1.70;;;1.70;;
3245;SDS011;1635;48.000;10.582;2022-09-09T14:38:47;1.70;;;1.70;;
3245;SDS011;1635;48.000;10.582;2022-09-09T14:41:16;1.60;;;1.60;;
3245;SDS011;1635;48.000;10.582;2022-09-09T14:43:46;1.67;;;1.57;;
3245;SDS011;1635;48.000;10.582;2022-09-09T14:46:14;1.37;;;1.37;;
3245;SDS011;1635;48.000;10.582;2022-09-09T14:48:45;1.73;;;1.63;;
3245;SDS011;1635;48.000;10.582;2022-09-09T14:51:16;1.40;;;1.40;;
3245;SDS011;1635;48.000;10.582;2022-09-09T14:53:45;1.40;;;1.40;;
3245;SDS011;1635;48.000;10.582;2022-09-09T14:56:14;1.50;;;1.50;;
3245;SDS011;1635;48.000;10.582;2022-09-09T14:58:44;1.30;;;1.30;;
3245;SDS011;1635;48.000;10.582;2022-09-09T15:01:14;1.33;;;1.33;;
3245;SDS011;1635;48.000;10.582;2022-09-09T15:03:54;1.50;;;1.40;;
3245;SDS011;1635;48.000;10.582;2022-09-09T15:06:25;1.50;;;1.50;;
3245;SDS011;1635;48.000;10.582;2022-09-09T15:08:55;1.60;;;1.50;;
3245;SDS011;1635;48.000;10.582;2022-09-09T15:11:28;1.40;;;1.40;;
3245;SDS011;1635;48.000;10.582;2022-09-09T15:13:58;1.50;;;1.47;;
3245;SDS011;1635;48.000;10.582;2022-09-09T15:16:26;1.40;;;1.40;;
3245;SDS011;1635;48.000;10.582;2022-09-09T15:18:56;1.73;;;1.63;;
3245;SDS011;1635;48.000;10.582;2022-09-09T15:21:28;2.17;;;2.07;;
3245;SDS011;1635;48.000;10.582;2022-09-09T15:24:00;1.40;;;1.40;;
3245;SDS011;1635;48.000;10.582;2022-09-09T15:26:27;1.40;;;1.40;;
3245;SDS011;1635;48.000;10.582;2022-09-09T15:28:56;1.30;;;1.30;;
3245;SDS011;1635;48.000;10.582;2022-09-09T15:31:28;1.80;;;1.70;;
3245;SDS011;1635;48.000;10.582;2022-09-09T15:34:00;1.67;;;1.67;;
3245;SDS011;1635;48.000;10.582;2022-09-09T15:36:33;1.80;;;1.70;;
3245;SDS011;1635;48.000;10.582;2022-09-09T15:39:04;7.70;;;2.53;;
3245;SDS011;1635;48.000;10.582;2022-09-09T15:41:36;1.40;;;1.40;;
3245;SDS011;1635;48.000;10.582;2022-09-09T15:44:04;1.20;;;1.20;;
3245;SDS011;1635;48.000;10.582;2022-09-09T15:46:34;1.20;;;1.20;;
3245;SDS011;1635;48.000;10.582;2022-09-09T15:49:15;1.90;;;1.80;;
3245;SDS011;1635;48.000;10.582;2022-09-09T15:51:56;1.60;;;1.50;;
3245;SDS011;1635;48.000;10.582;2022-09-09T15:54:35;1.23;;;1.23;;
3245;SDS011;1635;48.000;10.582;2022-09-09T15:57:06;1.20;;;1.20;;
3245;SDS011;1635;48.000;10.582;2022-09-09T15:59:38;1.27;;;1.27;;
3245;SDS011;1635;48.000;10.582;2022-09-09T16:02:09;1.57;;;1.53;;
3245;SDS011;1635;48.000;10.582;2022-09-09T16:04:37;1.30;;;1.30;;
3245;SDS011;1635;48.000;10.582;2022-09-09T16:07:04;2.00;;;1.80;;
3245;SDS011;1635;48.000;10.582;2022-09-09T16:09:33;1.47;;;1.47;;
3245;SDS011;1635;48.000;10.582;2022-09-09T16:12:03;1.30;;;1.30;;
3245;SDS011;1635;48.000;10.582;2022-09-09T16:14:37;1.30;;;1.30;;
3245;SDS011;1635;48.000;10.582;2022-09-09T16:17:06;1.20;;;1.20;;
3245;SDS011;1635;48.000;10.582;2022-09-09T16:19:34;1.50;;;1.40;;
3245;SDS011;1635;48.000;10.582;2022-09-09T16:22:03;1.43;;;1.43;;
3245;SDS011;1635;48.000;10.582;2022-09-09T16:24:32;1.20;;;1.20;;
3245;SDS011;1635;48.000;10.582;2022-09-09T16:27:00;1.93;;;1.83;;
3245;SDS011;1635;48.000;10.582;2022-09-09T16:29:27;1.40;;;1.40;;
3245;SDS011;1635;48.000;10.582;2022-09-09T16:31:56;1.90;;;1.80;;
3245;SDS011;1635;48.000;10.582;2022-09-09T16:34:29;1.10;;;1.10;;
3245;SDS011;1635;48.000;10.582;2022-09-09T16:36:57;1.50;;;1.40;;
3245;SDS011;1635;48.000;10.582;2022-09-09T16:39:24;1.20;;;1.20;;
3245;SDS011;1635;48.000;10.582;2022-09-09T16:41:52;1.33;;;1.33;;
3245;SDS011;1635;48.000;10.582;2022-09-09T16:44:20;1.90;;;1.80;;
3245;SDS011;1635;48.000;10.582;2022-09-09T16:46:49;1.23;;;1.23;;
3245;SDS011;1635;48.000;10.582;2022-09-09T16:49:26;1.63;;;1.53;;
3245;SDS011;1635;48.000;10.582;2022-09-09T16:51:56;1.40;;;1.40;;
3245;SDS011;1635;48.000;10.582;2022-09-09T16:54:26;1.20;;;1.20;;
3245;SDS011;1635;48.000;10.582;2022-09-09T16:56:53;1.30;;;1.30;;
3245;SDS011;1635;48.000;10.582;2022-09-09T16:59:21;1.50;;;1.50;;
3245;SDS011;1635;48.000;10.582;2022-09-09T17:01:50;1.20;;;1.20;;
3245;SDS011;1635;48.000;10.582;2022-09-09T17:04:22;1.37;;;1.37;;
3245;SDS011;1635;48.000;10.582;2022-09-09T17:06:53;1.30;;;1.30;;
3245;SDS011;1635;48.000;10.582;2022-09-09T17:09:22;1.70;;;1.60;;
3245;SDS011;1635;48.000;10.582;2022-09-09T17:11:50;1.40;;;1.40;;
3245;SDS011;1635;48.000;10.582;2022-09-09T17:14:20;1.63;;;1.53;;
3245;SDS011;1635;48.000;10.582;2022-09-09T17:16:51;1.27;;;1.27;;
3245;SDS011;1635;48.000;10.582;2022-09-09T17:19:20;1.30;;;1.30;;
3245;SDS011;1635;48.000;10.582;2022-09-09T17:21:48;1.20;;;1.20;;
3245;SDS011;1635;48.000;10.582;2022-09-09T17:24:36;1.70;;;1.60;;
3245;SDS011;1635;48.000;10.582;2022-09-09T17:27:06;1.33;;;1.33;;
3245;SDS011;1635;48.000;10.582;2022-09-09T17:29:35;1.30;;;1.30;;
3245;SDS011;1635;48.000;10.582;2022-09-09T17:32:04;1.10;;;1.10;;
3245;SDS011;1635;48.000;10.582;2022-09-09T17:34:33;1.10;;;1.10;;